createdAt,value
2022-11-09T00:02:15.095Z,18.99
2022-11-09T00:07:36.796Z,18.98
2022-11-09T00:12:58.496Z,18.97
2022-11-09T00:18:20.240Z,18.96
2022-11-09T00:23:41.966Z,18.95
2022-11-09T00:29:03.698Z,18.91
2022-11-09T00:34:25.528Z,18.90
2022-11-09T00:39:47.236Z,18.89
2022-11-09T00:45:09.171Z,18.87
2022-11-09T00:50:30.806Z,18.86
2022-11-09T00:56:04.634Z,18.87
2022-11-09T01:01:26.416Z,18.84
2022-11-09T01:06:48.494Z,18.82
2022-11-09T01:12:10.215Z,18.81
2022-11-09T01:17:32.259Z,18.80
2022-11-09T01:22:55.133Z,18.80
2022-11-09T01:28:16.787Z,18.78
2022-11-09T01:33:38.472Z,18.77
2022-11-09T01:39:00.969Z,18.76
2022-11-09T01:44:22.663Z,18.75
2022-11-09T01:49:55.219Z,18.74
2022-11-09T01:55:21.991Z,18.73
2022-11-09T02:00:47.191Z,18.74
2022-11-09T02:06:12.260Z,18.71
2022-11-09T02:11:36.666Z,18.71
2022-11-09T02:16:59.193Z,18.69
2022-11-09T02:22:20.866Z,18.69
2022-11-09T02:27:44.032Z,18.69
2022-11-09T02:33:05.749Z,18.67
2022-11-09T02:38:27.487Z,18.68
2022-11-09T02:43:52.033Z,18.67
2022-11-09T02:49:13.835Z,18.66
2022-11-09T02:54:35.728Z,18.66
2022-11-09T02:59:57.451Z,18.65
2022-11-09T03:05:19.572Z,18.65
2022-11-09T03:10:41.307Z,18.64
2022-11-09T03:16:07.322Z,18.64
2022-11-09T03:21:29.588Z,18.63
2022-11-09T03:26:51.266Z,18.61
2022-11-09T03:32:12.942Z,18.61
2022-11-09T03:37:34.695Z,18.60
2022-11-09T03:42:56.875Z,18.60
2022-11-09T03:48:18.542Z,18.58
2022-11-09T03:53:40.296Z,18.57
2022-11-09T03:59:01.939Z,18.56
2022-11-09T04:04:23.670Z,18.57
2022-11-09T04:09:45.395Z,18.56
2022-11-09T04:15:07.535Z,18.55
2022-11-09T04:20:30.833Z,18.55
2022-11-09T04:25:52.593Z,18.55
2022-11-09T04:31:14.397Z,18.54
2022-11-09T04:36:36.090Z,18.55
2022-11-09T04:41:57.768Z,18.53
2022-11-09T04:47:19.436Z,18.53
2022-11-09T04:52:41.079Z,18.52
2022-11-09T04:58:03.143Z,18.52
2022-11-09T05:03:24.883Z,18.50
2022-11-09T05:08:46.614Z,18.50
2022-11-09T05:14:08.422Z,18.50
2022-11-09T05:19:30.090Z,18.49
2022-11-09T05:24:52.077Z,18.48
2022-11-09T05:30:13.947Z,18.48
2022-11-09T05:35:35.628Z,18.48
2022-11-09T05:40:57.330Z,18.48
2022-11-09T05:46:19.515Z,18.48
2022-11-09T05:51:41.157Z,18.46
2022-11-09T05:57:02.974Z,18.45
2022-11-09T06:02:24.670Z,18.44
2022-11-09T06:07:46.660Z,18.46
2022-11-09T06:13:08.430Z,18.64
2022-11-09T06:18:31.926Z,18.86
2022-11-09T06:23:53.572Z,19.02
2022-11-09T06:29:15.252Z,19.13
2022-11-09T06:34:36.907Z,19.18
2022-11-09T06:39:58.563Z,19.18
2022-11-09T06:45:20.207Z,19.16
2022-11-09T06:50:42.021Z,19.13
2022-11-09T06:56:05.030Z,19.10
2022-11-09T07:01:29.026Z,19.05
2022-11-09T07:06:50.824Z,19.03
2022-11-09T07:12:12.593Z,19.02
2022-11-09T07:17:35.039Z,19.15
2022-11-09T07:22:56.723Z,19.31
2022-11-09T07:28:18.728Z,19.25
2022-11-09T07:33:40.399Z,19.28
2022-11-09T07:39:02.038Z,19.62
2022-11-09T07:44:23.805Z,19.69
2022-11-09T07:49:45.993Z,19.67
2022-11-09T07:55:08.083Z,19.75
2022-11-09T08:00:31.535Z,19.79
2022-11-09T08:05:53.336Z,19.65
2022-11-09T08:11:15.430Z,19.50
2022-11-09T08:16:37.999Z,19.84
2022-11-09T08:22:00.372Z,20.27
2022-11-09T08:27:23.048Z,19.93
2022-11-09T08:32:45.266Z,19.69
2022-11-09T08:38:07.194Z,19.52
2022-11-09T08:43:28.893Z,19.42
2022-11-09T08:48:50.562Z,19.32
2022-11-09T08:54:14.182Z,19.26
2022-11-09T08:59:36.131Z,19.19
2022-11-09T09:04:57.855Z,19.14
2022-11-09T09:10:19.591Z,19.10
2022-11-09T09:15:41.390Z,19.06
2022-11-09T09:21:06.897Z,19.02
2022-11-09T09:26:28.887Z,18.97
2022-11-09T09:31:51.061Z,18.94
2022-11-09T09:37:12.793Z,18.88
2022-11-09T09:42:43.572Z,18.86
2022-11-09T09:48:16.393Z,18.85
2022-11-09T09:53:44.993Z,18.84
2022-11-09T09:59:31.946Z,18.83
2022-11-09T10:04:57.631Z,18.82
2022-11-09T10:10:56.080Z,18.84
2022-11-09T10:16:45.758Z,18.85
2022-11-09T10:22:28.903Z,18.84
2022-11-09T10:28:03.266Z,18.85
2022-11-09T10:33:28.355Z,18.83
2022-11-09T10:38:52.544Z,18.80
2022-11-09T10:44:19.280Z,18.78
2022-11-09T10:49:41.229Z,18.75
2022-11-09T10:55:26.523Z,18.76
2022-11-09T11:01:10.133Z,18.73
2022-11-09T11:06:32.372Z,18.71
2022-11-09T11:12:15.576Z,18.70
2022-11-09T11:17:37.863Z,18.68
2022-11-09T11:23:20.465Z,18.69
2022-11-09T11:28:48.963Z,18.69
2022-11-09T11:34:31.983Z,18.70
2022-11-09T11:40:06.385Z,18.68
2022-11-09T11:45:41.448Z,18.68
2022-11-09T11:51:34.063Z,18.68
2022-11-09T11:57:11.058Z,18.67
2022-11-09T12:02:44.583Z,18.66
2022-11-09T12:08:40.011Z,18.68
2022-11-09T12:14:13.029Z,18.65
2022-11-09T12:19:49.224Z,18.67
2022-11-09T12:25:24.443Z,18.68
2022-11-09T12:30:57.084Z,18.66
2022-11-09T12:36:26.164Z,18.65
2022-11-09T12:41:49.973Z,18.63
2022-11-09T12:47:20.652Z,18.61
2022-11-09T12:52:43.700Z,18.56
2022-11-09T12:58:05.545Z,18.55
2022-11-09T13:03:33.305Z,18.56
2022-11-09T13:09:02.691Z,18.54
2022-11-09T13:14:30.374Z,18.52
2022-11-09T13:19:56.890Z,18.54
2022-11-09T13:25:44.409Z,18.54
2022-11-09T13:31:09.863Z,18.53
2022-11-09T13:36:31.576Z,18.52
2022-11-09T13:41:53.831Z,18.52
2022-11-09T13:47:32.438Z,18.54
2022-11-09T13:52:59.045Z,18.52
2022-11-09T13:58:37.707Z,18.52
2022-11-09T14:04:01.381Z,18.50
2022-11-09T14:09:23.188Z,18.50
2022-11-09T14:15:06.753Z,18.53
2022-11-09T14:20:34.858Z,18.52
2022-11-09T14:25:56.983Z,18.51
2022-11-09T14:31:31.304Z,18.54
2022-11-09T14:36:53.189Z,18.51
2022-11-09T14:42:20.236Z,18.54
2022-11-09T14:47:46.087Z,18.53
2022-11-09T14:53:14.160Z,18.53
2022-11-09T14:58:40.631Z,18.53
2022-11-09T15:04:09.483Z,18.53
2022-11-09T15:09:43.160Z,18.54
2022-11-09T15:15:07.068Z,18.52
2022-11-09T15:20:33.234Z,18.52
2022-11-09T15:25:56.387Z,18.53
2022-11-09T15:31:19.581Z,18.56
2022-11-09T15:36:45.031Z,18.61
2022-11-09T15:42:11.874Z,18.64
2022-11-09T15:47:38.087Z,18.67
2022-11-09T15:52:59.952Z,18.69
2022-11-09T15:58:22.169Z,18.74
2022-11-09T16:03:44.126Z,18.77
2022-11-09T16:09:05.878Z,18.81
2022-11-09T16:14:31.746Z,18.84
2022-11-09T16:19:53.535Z,18.84
2022-11-09T16:25:15.474Z,18.84
2022-11-09T16:30:37.219Z,18.85
2022-11-09T16:36:02.750Z,18.87
2022-11-09T16:41:24.590Z,18.86
2022-11-09T16:46:47.887Z,18.89
2022-11-09T16:52:09.816Z,18.87
2022-11-09T16:57:31.616Z,18.82
2022-11-09T17:02:53.711Z,18.77
2022-11-09T17:08:15.658Z,18.72
2022-11-09T17:13:38.141Z,18.69
2022-11-09T17:19:00.271Z,18.67
2022-11-09T17:24:22.211Z,18.64
2022-11-09T17:29:44.057Z,18.62
2022-11-09T17:35:05.974Z,18.59
2022-11-09T17:40:27.754Z,18.60
2022-11-09T17:45:49.483Z,18.67
2022-11-09T17:51:13.188Z,18.78
2022-11-09T17:56:35.120Z,18.90
2022-11-09T18:01:56.862Z,19.05
2022-11-09T18:07:18.631Z,19.19
2022-11-09T18:12:40.292Z,19.30
2022-11-09T18:18:01.939Z,19.35
2022-11-09T18:23:24.643Z,19.37
2022-11-09T18:28:46.410Z,19.36
2022-11-09T18:34:08.131Z,19.41
2022-11-09T18:39:29.907Z,19.44
2022-11-09T18:44:51.633Z,19.46
2022-11-09T18:50:13.383Z,19.58
2022-11-09T18:55:35.094Z,19.74
2022-11-09T19:01:05.640Z,19.87
2022-11-09T19:06:28.161Z,19.95
2022-11-09T19:11:50.156Z,20.03
2022-11-09T19:17:15.283Z,20.10
2022-11-09T19:22:37.064Z,20.12
2022-11-09T19:27:58.963Z,20.09
2022-11-09T19:33:20.647Z,20.07
2022-11-09T19:38:44.902Z,20.02
2022-11-09T19:44:08.129Z,19.95
2022-11-09T19:49:29.837Z,19.89
2022-11-09T19:54:51.655Z,19.84
2022-11-09T20:00:13.709Z,19.79
2022-11-09T20:05:35.754Z,19.75
2022-11-09T20:11:07.682Z,19.73
2022-11-09T20:16:29.447Z,19.68
2022-11-09T20:21:51.371Z,19.65
2022-11-09T20:27:13.090Z,19.61
2022-11-09T20:32:34.795Z,19.57
2022-11-09T20:37:56.467Z,19.54
2022-11-09T20:43:18.187Z,19.52
2022-11-09T20:48:53.255Z,19.48
2022-11-09T20:54:17.153Z,19.63
2022-11-09T20:59:39.107Z,19.93
2022-11-09T21:05:01.429Z,20.32
2022-11-09T21:10:23.119Z,20.55
2022-11-09T21:15:44.891Z,20.68
2022-11-09T21:21:13.002Z,20.73
2022-11-09T21:26:53.924Z,20.65
2022-11-09T21:32:15.569Z,20.56
2022-11-09T21:37:37.299Z,20.47
2022-11-09T21:42:59.140Z,20.37
2022-11-09T21:48:20.925Z,20.27
2022-11-09T21:53:42.650Z,20.19
2022-11-09T21:59:05.052Z,20.11
2022-11-09T22:04:26.749Z,20.04
2022-11-09T22:10:09.272Z,19.98
2022-11-09T22:15:50.152Z,19.91
2022-11-09T22:21:11.818Z,19.84
2022-11-09T22:26:33.631Z,19.78
2022-11-09T22:31:55.436Z,19.72
2022-11-09T22:37:17.205Z,19.64
2022-11-09T22:42:38.846Z,19.55
2022-11-09T22:48:00.501Z,19.50
2022-11-09T22:53:22.379Z,19.45
2022-11-09T22:58:47.881Z,19.42
2022-11-09T23:04:10.683Z,19.37
2022-11-09T23:09:32.466Z,19.33
2022-11-09T23:15:13.466Z,19.27
2022-11-09T23:20:35.912Z,19.23
2022-11-09T23:25:57.946Z,19.21
2022-11-09T23:31:24.490Z,19.19
2022-11-09T23:36:46.262Z,19.17
2022-11-09T23:42:07.892Z,19.14
2022-11-09T23:47:29.659Z,19.12
2022-11-09T23:52:51.381Z,19.11
2022-11-09T23:58:13.366Z,19.08
